Central, Indiana
Current Conditions -  °F | °C
As of 8:58 AM on Thursday 30 Oct 2014 (Local Time) from KFTK Reporting Station
Clear Clear  
Wind Chill: 35°   Ceiling: Unl
Heat Index: 35°   Visibility: 10mi
Dew Point: 33°   Wind: 1mph
Humidity: 93%   Direction: 340°NNW
Pressure: 30.16"   Gusts: NA
Location:  38.1°N, 86.16°W
Report Text: KFTK 301258Z AUTO 34001KT 10SM CLR 02/01 A3016 RMK AO2 SLP220 T00170007
Loading
Personal Weather Stations






























Interactive Weather Map
Tropical Storm Tracking
New forecast layout! Learn more

10-Day Weather Forecast

Advertisements
Track Severe Weather on mobile